sensor_id;sensor_type;location;lat;lon;timestamp;P1;durP1;ratioP1;P2;durP2;ratioP2
27003;SDS011;14546;47.590;19.022;2024-02-16T00:01:17;65.95;;;38.50;;
27003;SDS011;14546;47.590;19.022;2024-02-16T00:03:43;73.25;;;41.88;;
27003;SDS011;14546;47.590;19.022;2024-02-16T00:06:08;62.22;;;38.60;;
27003;SDS011;14546;47.590;19.022;2024-02-16T00:08:34;66.40;;;39.60;;
27003;SDS011;14546;47.590;19.022;2024-02-16T00:11:03;61.95;;;38.30;;
27003;SDS011;14546;47.590;19.022;2024-02-16T00:13:29;62.38;;;37.90;;
27003;SDS011;14546;47.590;19.022;2024-02-16T00:15:55;66.47;;;40.83;;
27003;SDS011;14546;47.590;19.022;2024-02-16T00:18:22;61.85;;;39.35;;
27003;SDS011;14546;47.590;19.022;2024-02-16T00:20:48;61.63;;;41.63;;
27003;SDS011;14546;47.590;19.022;2024-02-16T00:23:13;71.97;;;40.40;;
27003;SDS011;14546;47.590;19.022;2024-02-16T00:25:39;71.03;;;40.45;;
27003;SDS011;14546;47.590;19.022;2024-02-16T00:28:05;79.68;;;39.95;;
27003;SDS011;14546;47.590;19.022;2024-02-16T00:30:31;66.50;;;40.22;;
27003;SDS011;14546;47.590;19.022;2024-02-16T00:32:57;62.25;;;39.03;;
27003;SDS011;14546;47.590;19.022;2024-02-16T00:35:22;64.25;;;38.63;;
27003;SDS011;14546;47.590;19.022;2024-02-16T00:37:48;63.63;;;39.30;;
27003;SDS011;14546;47.590;19.022;2024-02-16T00:40:14;63.50;;;38.83;;
27003;SDS011;14546;47.590;19.022;2024-02-16T00:42:40;68.32;;;39.55;;
27003;SDS011;14546;47.590;19.022;2024-02-16T00:45:05;69.13;;;37.70;;
27003;SDS011;14546;47.590;19.022;2024-02-16T00:47:32;63.95;;;38.88;;
27003;SDS011;14546;47.590;19.022;2024-02-16T00:49:58;66.03;;;37.53;;
27003;SDS011;14546;47.590;19.022;2024-02-16T00:52:24;62.60;;;38.55;;
27003;SDS011;14546;47.590;19.022;2024-02-16T00:54:49;61.25;;;37.22;;
27003;SDS011;14546;47.590;19.022;2024-02-16T00:57:15;67.57;;;37.15;;
27003;SDS011;14546;47.590;19.022;2024-02-16T00:59:41;68.05;;;37.63;;
27003;SDS011;14546;47.590;19.022;2024-02-16T01:02:07;63.85;;;37.58;;
27003;SDS011;14546;47.590;19.022;2024-02-16T01:04:34;62.42;;;36.55;;
27003;SDS011;14546;47.590;19.022;2024-02-16T01:07:00;59.25;;;36.15;;
27003;SDS011;14546;47.590;19.022;2024-02-16T01:09:26;60.92;;;36.15;;
27003;SDS011;14546;47.590;19.022;2024-02-16T01:11:51;61.20;;;36.25;;
27003;SDS011;14546;47.590;19.022;2024-02-16T01:14:17;59.45;;;36.50;;
27003;SDS011;14546;47.590;19.022;2024-02-16T01:16:43;61.00;;;37.15;;
27003;SDS011;14546;47.590;19.022;2024-02-16T01:19:10;62.20;;;37.05;;
27003;SDS011;14546;47.590;19.022;2024-02-16T01:21:36;64.10;;;36.50;;
27003;SDS011;14546;47.590;19.022;2024-02-16T01:24:02;65.57;;;36.30;;
27003;SDS011;14546;47.590;19.022;2024-02-16T01:26:28;57.80;;;35.38;;
27003;SDS011;14546;47.590;19.022;2024-02-16T01:28:54;53.47;;;34.30;;
27003;SDS011;14546;47.590;19.022;2024-02-16T01:31:20;59.10;;;36.08;;
27003;SDS011;14546;47.590;19.022;2024-02-16T01:33:46;66.95;;;35.50;;
27003;SDS011;14546;47.590;19.022;2024-02-16T01:36:11;58.35;;;35.95;;
27003;SDS011;14546;47.590;19.022;2024-02-16T01:38:37;60.30;;;35.97;;
27003;SDS011;14546;47.590;19.022;2024-02-16T01:41:02;62.40;;;36.40;;
27003;SDS011;14546;47.590;19.022;2024-02-16T01:43:29;63.78;;;34.88;;
27003;SDS011;14546;47.590;19.022;2024-02-16T01:45:56;65.72;;;39.05;;
27003;SDS011;14546;47.590;19.022;2024-02-16T01:48:24;65.07;;;38.00;;
27003;SDS011;14546;47.590;19.022;2024-02-16T01:50:50;59.70;;;36.08;;
27003;SDS011;14546;47.590;19.022;2024-02-16T01:53:17;62.67;;;37.63;;
27003;SDS011;14546;47.590;19.022;2024-02-16T01:55:44;67.22;;;37.97;;
27003;SDS011;14546;47.590;19.022;2024-02-16T01:58:11;64.55;;;37.30;;
27003;SDS011;14546;47.590;19.022;2024-02-16T02:00:37;65.53;;;37.58;;
27003;SDS011;14546;47.590;19.022;2024-02-16T02:03:03;69.32;;;38.45;;
27003;SDS011;14546;47.590;19.022;2024-02-16T02:05:28;66.47;;;36.03;;
27003;SDS011;14546;47.590;19.022;2024-02-16T02:07:56;63.25;;;36.90;;
27003;SDS011;14546;47.590;19.022;2024-02-16T02:10:22;63.35;;;37.88;;
27003;SDS011;14546;47.590;19.022;2024-02-16T02:12:48;63.15;;;36.80;;
27003;SDS011;14546;47.590;19.022;2024-02-16T02:15:13;72.43;;;37.72;;
27003;SDS011;14546;47.590;19.022;2024-02-16T02:17:40;61.20;;;37.15;;
27003;SDS011;14546;47.590;19.022;2024-02-16T02:20:06;67.55;;;37.70;;
27003;SDS011;14546;47.590;19.022;2024-02-16T02:22:35;67.72;;;37.10;;
27003;SDS011;14546;47.590;19.022;2024-02-16T02:25:03;64.93;;;35.83;;
27003;SDS011;14546;47.590;19.022;2024-02-16T02:27:30;68.75;;;38.13;;
27003;SDS011;14546;47.590;19.022;2024-02-16T02:29:56;60.92;;;35.90;;
27003;SDS011;14546;47.590;19.022;2024-02-16T02:32:21;63.60;;;37.40;;
27003;SDS011;14546;47.590;19.022;2024-02-16T02:34:47;63.55;;;35.60;;
27003;SDS011;14546;47.590;19.022;2024-02-16T02:37:13;64.68;;;36.15;;
27003;SDS011;14546;47.590;19.022;2024-02-16T02:39:38;63.67;;;34.75;;
27003;SDS011;14546;47.590;19.022;2024-02-16T02:42:05;62.83;;;35.33;;
27003;SDS011;14546;47.590;19.022;2024-02-16T02:44:31;63.47;;;36.17;;
27003;SDS011;14546;47.590;19.022;2024-02-16T02:46:57;68.32;;;36.42;;
27003;SDS011;14546;47.590;19.022;2024-02-16T02:49:23;56.45;;;35.05;;
27003;SDS011;14546;47.590;19.022;2024-02-16T02:51:49;62.42;;;35.65;;
27003;SDS011;14546;47.590;19.022;2024-02-16T02:54:14;60.38;;;35.92;;
27003;SDS011;14546;47.590;19.022;2024-02-16T02:56:40;69.03;;;36.55;;
27003;SDS011;14546;47.590;19.022;2024-02-16T02:59:06;65.63;;;35.83;;
27003;SDS011;14546;47.590;19.022;2024-02-16T03:01:32;68.95;;;37.10;;
27003;SDS011;14546;47.590;19.022;2024-02-16T03:03:59;63.03;;;36.97;;
27003;SDS011;14546;47.590;19.022;2024-02-16T03:06:26;62.88;;;35.83;;
27003;SDS011;14546;47.590;19.022;2024-02-16T03:08:51;67.65;;;37.70;;
27003;SDS011;14546;47.590;19.022;2024-02-16T03:11:17;70.00;;;37.28;;
27003;SDS011;14546;47.590;19.022;2024-02-16T03:13:43;64.97;;;36.65;;
27003;SDS011;14546;47.590;19.022;2024-02-16T03:16:08;63.00;;;37.28;;
27003;SDS011;14546;47.590;19.022;2024-02-16T03:18:34;71.00;;;38.53;;
27003;SDS011;14546;47.590;19.022;2024-02-16T03:21:00;71.35;;;39.63;;
27003;SDS011;14546;47.590;19.022;2024-02-16T03:23:26;66.10;;;38.33;;
27003;SDS011;14546;47.590;19.022;2024-02-16T03:25:52;73.25;;;39.65;;
27003;SDS011;14546;47.590;19.022;2024-02-16T03:28:18;76.05;;;41.22;;
27003;SDS011;14546;47.590;19.022;2024-02-16T03:30:45;67.45;;;38.53;;
27003;SDS011;14546;47.590;19.022;2024-02-16T03:33:11;66.75;;;39.50;;
27003;SDS011;14546;47.590;19.022;2024-02-16T03:35:38;67.07;;;39.63;;
27003;SDS011;14546;47.590;19.022;2024-02-16T03:38:04;68.00;;;37.88;;
27003;SDS011;14546;47.590;19.022;2024-02-16T03:40:30;70.70;;;38.13;;
27003;SDS011;14546;47.590;19.022;2024-02-16T03:42:56;69.97;;;37.55;;
27003;SDS011;14546;47.590;19.022;2024-02-16T03:45:23;78.85;;;38.38;;
27003;SDS011;14546;47.590;19.022;2024-02-16T03:47:49;69.90;;;37.42;;
27003;SDS011;14546;47.590;19.022;2024-02-16T03:50:17;66.43;;;36.97;;
27003;SDS011;14546;47.590;19.022;2024-02-16T03:52:43;68.47;;;37.40;;
27003;SDS011;14546;47.590;19.022;2024-02-16T03:55:09;67.93;;;37.63;;
27003;SDS011;14546;47.590;19.022;2024-02-16T03:57:35;69.72;;;37.42;;
27003;SDS011;14546;47.590;19.022;2024-02-16T04:00:01;80.70;;;38.42;;
27003;SDS011;14546;47.590;19.022;2024-02-16T04:02:27;69.25;;;37.25;;
27003;SDS011;14546;47.590;19.022;2024-02-16T04:04:53;67.53;;;36.47;;
27003;SDS011;14546;47.590;19.022;2024-02-16T04:07:19;70.43;;;38.30;;
27003;SDS011;14546;47.590;19.022;2024-02-16T04:09:44;65.53;;;34.95;;
27003;SDS011;14546;47.590;19.022;2024-02-16T04:12:10;66.05;;;36.70;;
27003;SDS011;14546;47.590;19.022;2024-02-16T04:14:36;63.40;;;36.40;;
27003;SDS011;14546;47.590;19.022;2024-02-16T04:17:01;63.45;;;35.80;;
27003;SDS011;14546;47.590;19.022;2024-02-16T04:19:27;66.85;;;37.72;;
27003;SDS011;14546;47.590;19.022;2024-02-16T04:21:53;70.35;;;37.88;;
27003;SDS011;14546;47.590;19.022;2024-02-16T04:24:19;61.00;;;34.92;;
27003;SDS011;14546;47.590;19.022;2024-02-16T04:26:45;68.88;;;37.47;;
27003;SDS011;14546;47.590;19.022;2024-02-16T04:29:10;64.63;;;36.53;;
27003;SDS011;14546;47.590;19.022;2024-02-16T04:31:40;69.78;;;36.92;;
27003;SDS011;14546;47.590;19.022;2024-02-16T04:34:11;63.88;;;35.78;;
27003;SDS011;14546;47.590;19.022;2024-02-16T04:36:37;63.00;;;36.33;;
27003;SDS011;14546;47.590;19.022;2024-02-16T04:39:03;63.83;;;35.10;;
27003;SDS011;14546;47.590;19.022;2024-02-16T04:41:29;62.78;;;35.00;;
27003;SDS011;14546;47.590;19.022;2024-02-16T04:43:54;65.70;;;37.03;;
27003;SDS011;14546;47.590;19.022;2024-02-16T04:46:20;63.45;;;34.95;;
27003;SDS011;14546;47.590;19.022;2024-02-16T04:48:46;66.63;;;36.42;;
27003;SDS011;14546;47.590;19.022;2024-02-16T04:51:12;69.70;;;36.35;;
27003;SDS011;14546;47.590;19.022;2024-02-16T04:53:38;68.80;;;38.03;;
27003;SDS011;14546;47.590;19.022;2024-02-16T04:56:04;69.57;;;36.85;;
27003;SDS011;14546;47.590;19.022;2024-02-16T04:58:30;68.25;;;36.40;;
27003;SDS011;14546;47.590;19.022;2024-02-16T05:00:56;69.85;;;38.30;;
27003;SDS011;14546;47.590;19.022;2024-02-16T05:03:22;81.47;;;40.60;;
27003;SDS011;14546;47.590;19.022;2024-02-16T05:05:48;78.78;;;42.15;;
27003;SDS011;14546;47.590;19.022;2024-02-16T05:08:14;80.28;;;42.15;;
27003;SDS011;14546;47.590;19.022;2024-02-16T05:10:40;81.25;;;42.28;;
27003;SDS011;14546;47.590;19.022;2024-02-16T05:13:06;79.97;;;41.10;;
27003;SDS011;14546;47.590;19.022;2024-02-16T05:15:31;79.63;;;44.53;;
27003;SDS011;14546;47.590;19.022;2024-02-16T05:17:57;85.47;;;41.20;;
27003;SDS011;14546;47.590;19.022;2024-02-16T05:20:23;86.78;;;45.10;;
27003;SDS011;14546;47.590;19.022;2024-02-16T05:22:50;84.32;;;44.55;;
27003;SDS011;14546;47.590;19.022;2024-02-16T05:25:16;84.95;;;44.13;;
27003;SDS011;14546;47.590;19.022;2024-02-16T05:27:43;86.75;;;43.83;;
27003;SDS011;14546;47.590;19.022;2024-02-16T05:30:09;85.60;;;43.85;;
27003;SDS011;14546;47.590;19.022;2024-02-16T05:32:38;80.32;;;42.58;;
27003;SDS011;14546;47.590;19.022;2024-02-16T05:35:04;82.65;;;43.13;;
27003;SDS011;14546;47.590;19.022;2024-02-16T05:37:39;76.60;;;43.03;;
27003;SDS011;14546;47.590;19.022;2024-02-16T05:40:08;81.38;;;43.35;;
27003;SDS011;14546;47.590;19.022;2024-02-16T05:42:43;90.50;;;43.47;;
27003;SDS011;14546;47.590;19.022;2024-02-16T05:45:13;79.97;;;43.72;;
27003;SDS011;14546;47.590;19.022;2024-02-16T05:47:41;76.55;;;41.85;;
27003;SDS011;14546;47.590;19.022;2024-02-16T05:50:08;91.85;;;44.78;;
27003;SDS011;14546;47.590;19.022;2024-02-16T05:52:34;85.07;;;43.80;;
27003;SDS011;14546;47.590;19.022;2024-02-16T05:55:00;77.70;;;43.08;;
27003;SDS011;14546;47.590;19.022;2024-02-16T05:57:26;83.65;;;43.85;;
27003;SDS011;14546;47.590;19.022;2024-02-16T05:59:51;88.45;;;44.78;;
27003;SDS011;14546;47.590;19.022;2024-02-16T06:02:17;85.03;;;45.17;;
27003;SDS011;14546;47.590;19.022;2024-02-16T06:04:43;78.88;;;42.63;;
27003;SDS011;14546;47.590;19.022;2024-02-16T06:07:09;80.68;;;44.05;;
27003;SDS011;14546;47.590;19.022;2024-02-16T06:09:36;91.20;;;45.15;;
27003;SDS011;14546;47.590;19.022;2024-02-16T06:12:04;76.28;;;42.42;;
27003;SDS011;14546;47.590;19.022;2024-02-16T06:14:32;80.45;;;43.28;;
27003;SDS011;14546;47.590;19.022;2024-02-16T06:16:58;81.20;;;42.75;;
27003;SDS011;14546;47.590;19.022;2024-02-16T06:19:24;77.30;;;41.97;;
27003;SDS011;14546;47.590;19.022;2024-02-16T06:21:50;69.47;;;40.22;;
27003;SDS011;14546;47.590;19.022;2024-02-16T06:24:16;79.35;;;40.65;;
27003;SDS011;14546;47.590;19.022;2024-02-16T06:26:42;75.53;;;40.17;;
27003;SDS011;14546;47.590;19.022;2024-02-16T06:29:08;72.57;;;41.47;;
27003;SDS011;14546;47.590;19.022;2024-02-16T06:31:34;81.28;;;42.45;;
27003;SDS011;14546;47.590;19.022;2024-02-16T06:33:59;83.57;;;42.38;;
27003;SDS011;14546;47.590;19.022;2024-02-16T06:36:25;75.20;;;43.40;;
27003;SDS011;14546;47.590;19.022;2024-02-16T06:38:51;77.80;;;42.88;;
27003;SDS011;14546;47.590;19.022;2024-02-16T06:41:16;76.22;;;43.28;;
27003;SDS011;14546;47.590;19.022;2024-02-16T06:43:42;78.75;;;42.00;;
27003;SDS011;14546;47.590;19.022;2024-02-16T06:46:08;74.50;;;40.70;;
27003;SDS011;14546;47.590;19.022;2024-02-16T06:48:33;78.65;;;42.45;;
27003;SDS011;14546;47.590;19.022;2024-02-16T06:50:59;73.93;;;41.33;;
27003;SDS011;14546;47.590;19.022;2024-02-16T06:53:25;82.45;;;42.25;;
27003;SDS011;14546;47.590;19.022;2024-02-16T06:55:51;77.50;;;41.65;;
27003;SDS011;14546;47.590;19.022;2024-02-16T06:58:17;74.45;;;40.92;;
27003;SDS011;14546;47.590;19.022;2024-02-16T07:00:42;73.72;;;39.55;;
27003;SDS011;14546;47.590;19.022;2024-02-16T07:03:08;75.25;;;40.67;;
27003;SDS011;14546;47.590;19.022;2024-02-16T07:05:37;73.05;;;39.92;;
27003;SDS011;14546;47.590;19.022;2024-02-16T07:08:03;73.63;;;42.35;;
27003;SDS011;14546;47.590;19.022;2024-02-16T07:10:31;75.97;;;40.78;;
27003;SDS011;14546;47.590;19.022;2024-02-16T07:12:57;73.47;;;39.40;;
27003;SDS011;14546;47.590;19.022;2024-02-16T07:15:22;71.03;;;40.00;;
27003;SDS011;14546;47.590;19.022;2024-02-16T07:17:48;65.82;;;38.25;;
27003;SDS011;14546;47.590;19.022;2024-02-16T07:20:14;69.88;;;39.22;;
27003;SDS011;14546;47.590;19.022;2024-02-16T07:22:40;70.28;;;40.55;;
27003;SDS011;14546;47.590;19.022;2024-02-16T07:25:07;68.50;;;38.63;;
27003;SDS011;14546;47.590;19.022;2024-02-16T07:27:33;66.00;;;39.28;;
27003;SDS011;14546;47.590;19.022;2024-02-16T07:29:59;68.97;;;39.15;;
27003;SDS011;14546;47.590;19.022;2024-02-16T07:32:25;68.43;;;37.97;;
27003;SDS011;14546;47.590;19.022;2024-02-16T07:34:50;61.75;;;36.38;;
27003;SDS011;14546;47.590;19.022;2024-02-16T07:37:16;58.58;;;36.03;;
27003;SDS011;14546;47.590;19.022;2024-02-16T07:39:42;62.70;;;35.25;;
27003;SDS011;14546;47.590;19.022;2024-02-16T07:42:07;61.75;;;36.08;;
27003;SDS011;14546;47.590;19.022;2024-02-16T07:44:38;62.70;;;37.20;;
27003;SDS011;14546;47.590;19.022;2024-02-16T07:47:04;60.85;;;36.85;;
27003;SDS011;14546;47.590;19.022;2024-02-16T07:49:30;56.83;;;34.47;;
27003;SDS011;14546;47.590;19.022;2024-02-16T07:51:55;62.30;;;35.05;;
27003;SDS011;14546;47.590;19.022;2024-02-16T07:54:21;52.85;;;33.88;;
27003;SDS011;14546;47.590;19.022;2024-02-16T07:56:47;62.15;;;32.08;;
27003;SDS011;14546;47.590;19.022;2024-02-16T07:59:13;49.72;;;30.08;;
27003;SDS011;14546;47.590;19.022;2024-02-16T08:01:38;57.72;;;34.20;;
27003;SDS011;14546;47.590;19.022;2024-02-16T08:04:05;60.72;;;32.13;;
27003;SDS011;14546;47.590;19.022;2024-02-16T08:06:31;65.70;;;34.58;;
27003;SDS011;14546;47.590;19.022;2024-02-16T08:08:56;63.58;;;34.72;;
27003;SDS011;14546;47.590;19.022;2024-02-16T08:11:22;58.40;;;32.38;;
27003;SDS011;14546;47.590;19.022;2024-02-16T08:13:48;59.00;;;32.90;;
27003;SDS011;14546;47.590;19.022;2024-02-16T08:16:14;63.83;;;33.88;;
27003;SDS011;14546;47.590;19.022;2024-02-16T08:18:39;61.80;;;33.83;;
27003;SDS011;14546;47.590;19.022;2024-02-16T08:21:05;60.05;;;31.58;;
27003;SDS011;14546;47.590;19.022;2024-02-16T08:23:31;55.40;;;31.20;;
27003;SDS011;14546;47.590;19.022;2024-02-16T08:25:56;57.42;;;30.05;;
27003;SDS011;14546;47.590;19.022;2024-02-16T08:28:23;58.38;;;31.67;;
27003;SDS011;14546;47.590;19.022;2024-02-16T08:30:49;60.13;;;31.40;;
27003;SDS011;14546;47.590;19.022;2024-02-16T08:33:15;66.65;;;30.33;;
27003;SDS011;14546;47.590;19.022;2024-02-16T08:35:41;53.67;;;29.52;;
27003;SDS011;14546;47.590;19.022;2024-02-16T08:38:07;51.13;;;29.15;;
27003;SDS011;14546;47.590;19.022;2024-02-16T08:40:39;53.30;;;29.70;;
27003;SDS011;14546;47.590;19.022;2024-02-16T08:43:05;53.38;;;28.30;;
27003;SDS011;14546;47.590;19.022;2024-02-16T08:45:32;53.88;;;28.77;;
27003;SDS011;14546;47.590;19.022;2024-02-16T08:47:58;58.03;;;29.08;;
27003;SDS011;14546;47.590;19.022;2024-02-16T08:50:26;49.13;;;28.45;;
27003;SDS011;14546;47.590;19.022;2024-02-16T08:52:52;52.35;;;29.65;;
27003;SDS011;14546;47.590;19.022;2024-02-16T08:55:19;53.28;;;28.92;;
27003;SDS011;14546;47.590;19.022;2024-02-16T08:57:45;48.80;;;28.10;;
27003;SDS011;14546;47.590;19.022;2024-02-16T09:00:11;51.97;;;27.25;;
27003;SDS011;14546;47.590;19.022;2024-02-16T09:02:38;55.60;;;27.90;;
27003;SDS011;14546;47.590;19.022;2024-02-16T09:05:04;46.03;;;27.17;;
27003;SDS011;14546;47.590;19.022;2024-02-16T09:07:30;48.83;;;27.27;;
27003;SDS011;14546;47.590;19.022;2024-02-16T09:09:57;50.10;;;27.77;;
27003;SDS011;14546;47.590;19.022;2024-02-16T09:12:23;47.15;;;27.83;;
27003;SDS011;14546;47.590;19.022;2024-02-16T09:14:49;43.90;;;27.23;;
27003;SDS011;14546;47.590;19.022;2024-02-16T09:17:15;50.83;;;26.92;;
27003;SDS011;14546;47.590;19.022;2024-02-16T09:19:41;46.80;;;27.67;;
27003;SDS011;14546;47.590;19.022;2024-02-16T09:22:07;42.55;;;24.60;;
27003;SDS011;14546;47.590;19.022;2024-02-16T09:24:33;42.72;;;23.50;;
27003;SDS011;14546;47.590;19.022;2024-02-16T09:26:59;48.67;;;24.08;;
27003;SDS011;14546;47.590;19.022;2024-02-16T09:29:28;41.95;;;24.58;;
27003;SDS011;14546;47.590;19.022;2024-02-16T09:31:54;45.05;;;23.35;;
27003;SDS011;14546;47.590;19.022;2024-02-16T09:34:20;37.40;;;23.38;;
27003;SDS011;14546;47.590;19.022;2024-02-16T09:36:46;39.10;;;25.33;;
27003;SDS011;14546;47.590;19.022;2024-02-16T09:39:12;42.35;;;24.33;;
27003;SDS011;14546;47.590;19.022;2024-02-16T09:41:42;40.92;;;24.63;;
27003;SDS011;14546;47.590;19.022;2024-02-16T09:44:08;43.75;;;23.70;;
27003;SDS011;14546;47.590;19.022;2024-02-16T09:46:35;51.28;;;24.67;;
27003;SDS011;14546;47.590;19.022;2024-02-16T09:49:01;33.83;;;22.30;;
27003;SDS011;14546;47.590;19.022;2024-02-16T09:51:28;37.60;;;24.02;;
27003;SDS011;14546;47.590;19.022;2024-02-16T09:53:54;30.75;;;19.70;;
27003;SDS011;14546;47.590;19.022;2024-02-16T09:56:20;34.53;;;21.35;;
27003;SDS011;14546;47.590;19.022;2024-02-16T09:58:47;31.67;;;19.45;;
27003;SDS011;14546;47.590;19.022;2024-02-16T10:01:19;29.50;;;17.63;;
27003;SDS011;14546;47.590;19.022;2024-02-16T10:03:45;29.93;;;16.70;;
27003;SDS011;14546;47.590;19.022;2024-02-16T10:06:12;29.52;;;17.40;;
27003;SDS011;14546;47.590;19.022;2024-02-16T10:08:50;27.83;;;17.08;;
27003;SDS011;14546;47.590;19.022;2024-02-16T10:11:17;21.70;;;14.43;;
27003;SDS011;14546;47.590;19.022;2024-02-16T10:13:58;24.35;;;15.27;;
27003;SDS011;14546;47.590;19.022;2024-02-16T10:16:25;29.60;;;15.82;;
27003;SDS011;14546;47.590;19.022;2024-02-16T10:18:54;24.50;;;13.88;;
27003;SDS011;14546;47.590;19.022;2024-02-16T10:21:24;22.70;;;14.60;;
27003;SDS011;14546;47.590;19.022;2024-02-16T10:26:23;21.67;;;13.15;;
27003;SDS011;14546;47.590;19.022;2024-02-16T10:28:50;21.58;;;12.18;;
27003;SDS011;14546;47.590;19.022;2024-02-16T10:31:21;17.33;;;12.73;;
27003;SDS011;14546;47.590;19.022;2024-02-16T10:33:53;23.48;;;13.45;;
27003;SDS011;14546;47.590;19.022;2024-02-16T10:36:19;18.95;;;11.65;;
27003;SDS011;14546;47.590;19.022;2024-02-16T10:38:46;17.20;;;11.00;;
27003;SDS011;14546;47.590;19.022;2024-02-16T10:41:13;18.70;;;12.55;;
27003;SDS011;14546;47.590;19.022;2024-02-16T10:43:39;19.98;;;12.68;;
27003;SDS011;14546;47.590;19.022;2024-02-16T10:46:05;21.30;;;12.18;;
27003;SDS011;14546;47.590;19.022;2024-02-16T10:48:31;20.80;;;12.60;;
27003;SDS011;14546;47.590;19.022;2024-02-16T10:50:57;20.58;;;12.30;;
27003;SDS011;14546;47.590;19.022;2024-02-16T10:53:25;21.20;;;12.30;;
27003;SDS011;14546;47.590;19.022;2024-02-16T10:55:53;16.35;;;11.43;;
27003;SDS011;14546;47.590;19.022;2024-02-16T10:58:23;18.80;;;10.60;;
27003;SDS011;14546;47.590;19.022;2024-02-16T11:00:49;19.17;;;11.18;;
27003;SDS011;14546;47.590;19.022;2024-02-16T11:03:16;16.25;;;10.30;;
27003;SDS011;14546;47.590;19.022;2024-02-16T11:05:42;15.75;;;10.50;;
27003;SDS011;14546;47.590;19.022;2024-02-16T11:08:14;17.70;;;9.25;;
27003;SDS011;14546;47.590;19.022;2024-02-16T11:10:41;13.80;;;8.57;;
27003;SDS011;14546;47.590;19.022;2024-02-16T11:13:07;12.63;;;8.20;;
27003;SDS011;14546;47.590;19.022;2024-02-16T11:15:34;11.75;;;9.18;;
27003;SDS011;14546;47.590;19.022;2024-02-16T11:18:01;15.02;;;9.30;;
27003;SDS011;14546;47.590;19.022;2024-02-16T11:20:28;11.52;;;9.32;;
27003;SDS011;14546;47.590;19.022;2024-02-16T11:23:04;13.38;;;8.82;;
27003;SDS011;14546;47.590;19.022;2024-02-16T11:25:31;11.85;;;8.85;;
27003;SDS011;14546;47.590;19.022;2024-02-16T11:27:58;14.95;;;8.82;;
27003;SDS011;14546;47.590;19.022;2024-02-16T11:30:24;15.32;;;8.63;;
27003;SDS011;14546;47.590;19.022;2024-02-16T11:32:51;13.60;;;8.52;;
27003;SDS011;14546;47.590;19.022;2024-02-16T11:35:17;14.13;;;9.13;;
27003;SDS011;14546;47.590;19.022;2024-02-16T11:37:43;14.35;;;8.85;;
27003;SDS011;14546;47.590;19.022;2024-02-16T11:40:12;15.05;;;9.38;;
27003;SDS011;14546;47.590;19.022;2024-02-16T11:42:38;13.80;;;9.32;;
27003;SDS011;14546;47.590;19.022;2024-02-16T11:45:11;11.95;;;9.52;;
27003;SDS011;14546;47.590;19.022;2024-02-16T11:47:37;11.32;;;8.02;;
27003;SDS011;14546;47.590;19.022;2024-02-16T11:52:29;14.40;;;9.13;;
27003;SDS011;14546;47.590;19.022;2024-02-16T11:54:56;15.30;;;9.80;;
27003;SDS011;14546;47.590;19.022;2024-02-16T11:57:25;14.50;;;10.00;;
27003;SDS011;14546;47.590;19.022;2024-02-16T11:59:51;14.90;;;9.60;;
27003;SDS011;14546;47.590;19.022;2024-02-16T12:02:18;17.10;;;11.20;;
27003;SDS011;14546;47.590;19.022;2024-02-16T12:04:45;14.23;;;10.57;;
27003;SDS011;14546;47.590;19.022;2024-02-16T12:07:12;16.73;;;10.27;;
27003;SDS011;14546;47.590;19.022;2024-02-16T12:09:39;16.50;;;10.68;;
27003;SDS011;14546;47.590;19.022;2024-02-16T12:12:05;17.35;;;9.73;;
27003;SDS011;14546;47.590;19.022;2024-02-16T12:14:31;16.85;;;9.75;;
27003;SDS011;14546;47.590;19.022;2024-02-16T12:16:58;16.55;;;10.73;;
27003;SDS011;14546;47.590;19.022;2024-02-16T12:19:24;15.90;;;9.90;;
27003;SDS011;14546;47.590;19.022;2024-02-16T12:21:51;14.23;;;9.75;;
27003;SDS011;14546;47.590;19.022;2024-02-16T12:24:18;13.32;;;9.45;;
27003;SDS011;14546;47.590;19.022;2024-02-16T12:26:44;15.77;;;10.98;;
27003;SDS011;14546;47.590;19.022;2024-02-16T12:29:10;16.23;;;10.35;;
27003;SDS011;14546;47.590;19.022;2024-02-16T12:31:40;14.43;;;10.55;;
27003;SDS011;14546;47.590;19.022;2024-02-16T12:34:07;17.05;;;10.73;;
27003;SDS011;14546;47.590;19.022;2024-02-16T12:36:33;17.83;;;10.45;;
27003;SDS011;14546;47.590;19.022;2024-02-16T12:39:00;14.75;;;9.88;;
27003;SDS011;14546;47.590;19.022;2024-02-16T12:41:27;17.92;;;11.20;;
27003;SDS011;14546;47.590;19.022;2024-02-16T12:43:54;16.48;;;11.50;;
27003;SDS011;14546;47.590;19.022;2024-02-16T12:46:20;19.70;;;11.35;;
27003;SDS011;14546;47.590;19.022;2024-02-16T12:48:46;18.25;;;11.43;;
27003;SDS011;14546;47.590;19.022;2024-02-16T12:51:12;16.27;;;10.80;;
27003;SDS011;14546;47.590;19.022;2024-02-16T12:53:39;19.65;;;10.60;;
27003;SDS011;14546;47.590;19.022;2024-02-16T12:56:08;16.98;;;10.20;;
27003;SDS011;14546;47.590;19.022;2024-02-16T12:58:34;15.38;;;10.65;;
27003;SDS011;14546;47.590;19.022;2024-02-16T13:01:01;15.63;;;11.10;;
27003;SDS011;14546;47.590;19.022;2024-02-16T13:03:27;15.73;;;11.20;;
27003;SDS011;14546;47.590;19.022;2024-02-16T13:05:53;20.20;;;11.77;;
27003;SDS011;14546;47.590;19.022;2024-02-16T13:08:19;18.73;;;11.85;;
27003;SDS011;14546;47.590;19.022;2024-02-16T13:10:45;19.67;;;11.88;;
27003;SDS011;14546;47.590;19.022;2024-02-16T13:13:11;18.50;;;10.98;;
27003;SDS011;14546;47.590;19.022;2024-02-16T13:15:37;16.10;;;10.52;;
27003;SDS011;14546;47.590;19.022;2024-02-16T13:18:05;13.95;;;9.40;;
27003;SDS011;14546;47.590;19.022;2024-02-16T13:20:31;12.60;;;9.18;;
27003;SDS011;14546;47.590;19.022;2024-02-16T13:22:59;13.15;;;9.13;;
27003;SDS011;14546;47.590;19.022;2024-02-16T13:25:25;16.80;;;10.45;;
27003;SDS011;14546;47.590;19.022;2024-02-16T13:27:51;15.98;;;10.65;;
27003;SDS011;14546;47.590;19.022;2024-02-16T13:30:17;12.27;;;9.15;;
27003;SDS011;14546;47.590;19.022;2024-02-16T13:32:43;12.38;;;8.20;;
27003;SDS011;14546;47.590;19.022;2024-02-16T13:35:09;15.75;;;7.78;;
27003;SDS011;14546;47.590;19.022;2024-02-16T13:37:35;13.45;;;8.60;;
27003;SDS011;14546;47.590;19.022;2024-02-16T13:40:02;13.75;;;9.35;;
27003;SDS011;14546;47.590;19.022;2024-02-16T13:45:01;12.60;;;8.10;;
27003;SDS011;14546;47.590;19.022;2024-02-16T13:47:28;11.90;;;7.78;;
27003;SDS011;14546;47.590;19.022;2024-02-16T13:49:54;13.48;;;7.97;;
27003;SDS011;14546;47.590;19.022;2024-02-16T13:52:22;12.35;;;7.80;;
27003;SDS011;14546;47.590;19.022;2024-02-16T13:54:48;12.35;;;7.95;;
27003;SDS011;14546;47.590;19.022;2024-02-16T13:57:14;11.45;;;8.25;;
27003;SDS011;14546;47.590;19.022;2024-02-16T13:59:42;13.23;;;8.45;;
27003;SDS011;14546;47.590;19.022;2024-02-16T14:02:08;13.38;;;8.20;;
27003;SDS011;14546;47.590;19.022;2024-02-16T14:04:34;13.13;;;8.25;;
27003;SDS011;14546;47.590;19.022;2024-02-16T14:07:00;11.02;;;8.05;;
27003;SDS011;14546;47.590;19.022;2024-02-16T14:09:26;10.43;;;6.90;;
27003;SDS011;14546;47.590;19.022;2024-02-16T14:11:52;12.07;;;7.72;;
27003;SDS011;14546;47.590;19.022;2024-02-16T14:14:20;11.57;;;8.23;;